sensor_id;sensor_type;location;lat;lon;timestamp;temperature;humidity
51383;DHT22;37475;43.358;1.248;2023-01-09T00:01:48;9.40;88.20
51383;DHT22;37475;43.358;1.248;2023-01-09T00:04:15;9.30;88.00
51383;DHT22;37475;43.358;1.248;2023-01-09T00:06:41;9.30;88.30
51383;DHT22;37475;43.358;1.248;2023-01-09T00:09:08;9.30;87.80
51383;DHT22;37475;43.358;1.248;2023-01-09T00:11:35;9.30;87.20
51383;DHT22;37475;43.358;1.248;2023-01-09T00:14:01;9.50;87.20
51383;DHT22;37475;43.358;1.248;2023-01-09T00:16:28;9.40;87.10
51383;DHT22;37475;43.358;1.248;2023-01-09T00:18:54;9.50;86.60
51383;DHT22;37475;43.358;1.248;2023-01-09T00:21:21;9.50;86.70
51383;DHT22;37475;43.358;1.248;2023-01-09T00:23:47;9.50;86.60
51383;DHT22;37475;43.358;1.248;2023-01-09T00:26:15;9.50;86.40
51383;DHT22;37475;43.358;1.248;2023-01-09T00:28:43;9.60;86.30
51383;DHT22;37475;43.358;1.248;2023-01-09T00:31:10;9.50;86.70
51383;DHT22;37475;43.358;1.248;2023-01-09T00:33:45;9.50;86.90
51383;DHT22;37475;43.358;1.248;2023-01-09T00:36:23;9.40;87.30
51383;DHT22;37475;43.358;1.248;2023-01-09T00:38:49;9.40;87.40
51383;DHT22;37475;43.358;1.248;2023-01-09T00:41:28;9.50;87.50
51383;DHT22;37475;43.358;1.248;2023-01-09T00:43:59;9.50;87.30
51383;DHT22;37475;43.358;1.248;2023-01-09T00:46:31;9.40;87.90
51383;DHT22;37475;43.358;1.248;2023-01-09T00:48:59;9.50;87.40
51383;DHT22;37475;43.358;1.248;2023-01-09T00:51:26;9.50;87.30
51383;DHT22;37475;43.358;1.248;2023-01-09T00:53:53;9.50;87.60
51383;DHT22;37475;43.358;1.248;2023-01-09T00:56:19;9.50;87.60
51383;DHT22;37475;43.358;1.248;2023-01-09T00:58:47;9.50;87.90
51383;DHT22;37475;43.358;1.248;2023-01-09T01:01:13;9.50;87.60
51383;DHT22;37475;43.358;1.248;2023-01-09T01:03:40;9.50;87.60
51383;DHT22;37475;43.358;1.248;2023-01-09T01:06:05;9.60;87.60
51383;DHT22;37475;43.358;1.248;2023-01-09T01:08:50;9.60;87.40
51383;DHT22;37475;43.358;1.248;2023-01-09T01:11:16;9.60;87.50
51383;DHT22;37475;43.358;1.248;2023-01-09T01:13:42;9.50;87.60
51383;DHT22;37475;43.358;1.248;2023-01-09T01:16:10;9.50;87.90
51383;DHT22;37475;43.358;1.248;2023-01-09T01:18:37;9.50;88.20
51383;DHT22;37475;43.358;1.248;2023-01-09T01:21:08;9.50;87.60
51383;DHT22;37475;43.358;1.248;2023-01-09T01:23:36;9.60;87.60
51383;DHT22;37475;43.358;1.248;2023-01-09T01:26:07;9.50;87.50
51383;DHT22;37475;43.358;1.248;2023-01-09T01:28:35;9.50;87.80
51383;DHT22;37475;43.358;1.248;2023-01-09T01:31:01;9.50;87.80
51383;DHT22;37475;43.358;1.248;2023-01-09T01:33:27;9.50;87.70
51383;DHT22;37475;43.358;1.248;2023-01-09T01:36:07;9.50;87.80
51383;DHT22;37475;43.358;1.248;2023-01-09T01:38:33;9.40;87.80
51383;DHT22;37475;43.358;1.248;2023-01-09T01:41:00;9.40;88.10
51383;DHT22;37475;43.358;1.248;2023-01-09T01:43:27;9.30;88.20
51383;DHT22;37475;43.358;1.248;2023-01-09T01:45:53;9.40;87.90
51383;DHT22;37475;43.358;1.248;2023-01-09T01:48:25;9.30;87.90
51383;DHT22;37475;43.358;1.248;2023-01-09T01:50:59;9.30;87.80
51383;DHT22;37475;43.358;1.248;2023-01-09T01:53:35;9.40;87.40
51383;DHT22;37475;43.358;1.248;2023-01-09T01:56:38;9.40;87.30
51383;DHT22;37475;43.358;1.248;2023-01-09T02:01:43;9.30;87.90
51383;DHT22;37475;43.358;1.248;2023-01-09T02:04:11;9.30;87.70
51383;DHT22;37475;43.358;1.248;2023-01-09T02:06:38;9.40;87.30
51383;DHT22;37475;43.358;1.248;2023-01-09T02:09:05;9.40;87.60
51383;DHT22;37475;43.358;1.248;2023-01-09T02:11:31;9.30;87.70
51383;DHT22;37475;43.358;1.248;2023-01-09T02:13:59;9.30;87.50
51383;DHT22;37475;43.358;1.248;2023-01-09T02:17:02;9.30;87.30
51383;DHT22;37475;43.358;1.248;2023-01-09T02:33:08;9.20;87.60
51383;DHT22;37475;43.358;1.248;2023-01-09T02:35:58;9.20;87.60
51383;DHT22;37475;43.358;1.248;2023-01-09T02:38:53;9.30;87.40
51383;DHT22;37475;43.358;1.248;2023-01-09T02:41:30;9.20;87.50
51383;DHT22;37475;43.358;1.248;2023-01-09T02:44:20;9.20;88.00
51383;DHT22;37475;43.358;1.248;2023-01-09T02:47:32;9.10;87.90
51383;DHT22;37475;43.358;1.248;2023-01-09T02:49:59;9.10;87.80
51383;DHT22;37475;43.358;1.248;2023-01-09T02:55:46;9.10;88.20
51383;DHT22;37475;43.358;1.248;2023-01-09T03:01:41;9.10;88.20
51383;DHT22;37475;43.358;1.248;2023-01-09T03:05:02;9.10;87.80
51383;DHT22;37475;43.358;1.248;2023-01-09T03:07:29;9.10;88.20
51383;DHT22;37475;43.358;1.248;2023-01-09T03:13:02;9.00;88.40
51383;DHT22;37475;43.358;1.248;2023-01-09T03:15:33;9.00;88.30
51383;DHT22;37475;43.358;1.248;2023-01-09T03:18:00;9.00;89.00
51383;DHT22;37475;43.358;1.248;2023-01-09T03:20:26;9.00;88.70
51383;DHT22;37475;43.358;1.248;2023-01-09T03:22:57;9.00;88.70
51383;DHT22;37475;43.358;1.248;2023-01-09T03:25:27;9.00;88.40
51383;DHT22;37475;43.358;1.248;2023-01-09T03:28:05;9.00;88.60
51383;DHT22;37475;43.358;1.248;2023-01-09T03:30:35;9.00;88.20
51383;DHT22;37475;43.358;1.248;2023-01-09T03:33:01;9.00;88.30
51383;DHT22;37475;43.358;1.248;2023-01-09T03:35:27;8.90;88.60
51383;DHT22;37475;43.358;1.248;2023-01-09T03:37:53;8.90;88.40
51383;DHT22;37475;43.358;1.248;2023-01-09T03:40:20;8.90;88.40
51383;DHT22;37475;43.358;1.248;2023-01-09T03:42:46;8.90;88.40
51383;DHT22;37475;43.358;1.248;2023-01-09T03:45:12;8.90;88.50
51383;DHT22;37475;43.358;1.248;2023-01-09T03:47:38;8.90;88.80
51383;DHT22;37475;43.358;1.248;2023-01-09T03:50:05;8.90;88.50
51383;DHT22;37475;43.358;1.248;2023-01-09T03:52:31;8.80;88.40
51383;DHT22;37475;43.358;1.248;2023-01-09T03:54:57;8.80;88.60
51383;DHT22;37475;43.358;1.248;2023-01-09T03:57:23;8.80;88.10
51383;DHT22;37475;43.358;1.248;2023-01-09T03:59:49;8.80;88.00
51383;DHT22;37475;43.358;1.248;2023-01-09T04:02:15;8.80;88.10
51383;DHT22;37475;43.358;1.248;2023-01-09T04:04:41;8.70;88.10
51383;DHT22;37475;43.358;1.248;2023-01-09T04:07:07;8.70;88.30
51383;DHT22;37475;43.358;1.248;2023-01-09T04:09:33;8.70;88.00
51383;DHT22;37475;43.358;1.248;2023-01-09T04:11:58;8.70;87.60
51383;DHT22;37475;43.358;1.248;2023-01-09T04:14:24;8.70;87.50
51383;DHT22;37475;43.358;1.248;2023-01-09T04:16:50;8.70;87.40
51383;DHT22;37475;43.358;1.248;2023-01-09T04:19:16;8.70;86.90
51383;DHT22;37475;43.358;1.248;2023-01-09T04:21:42;8.70;86.30
51383;DHT22;37475;43.358;1.248;2023-01-09T04:24:07;8.60;86.30
51383;DHT22;37475;43.358;1.248;2023-01-09T04:26:33;8.60;86.60
51383;DHT22;37475;43.358;1.248;2023-01-09T04:28:59;8.60;85.80
51383;DHT22;37475;43.358;1.248;2023-01-09T04:31:25;8.50;85.40
51383;DHT22;37475;43.358;1.248;2023-01-09T04:33:51;8.60;84.90
51383;DHT22;37475;43.358;1.248;2023-01-09T04:36:17;8.50;85.20
51383;DHT22;37475;43.358;1.248;2023-01-09T04:38:43;8.40;85.30
51383;DHT22;37475;43.358;1.248;2023-01-09T04:41:08;8.40;85.00
51383;DHT22;37475;43.358;1.248;2023-01-09T04:43:34;8.40;85.00
51383;DHT22;37475;43.358;1.248;2023-01-09T04:46:01;8.30;84.90
51383;DHT22;37475;43.358;1.248;2023-01-09T04:48:27;8.20;85.40
51383;DHT22;37475;43.358;1.248;2023-01-09T04:50:53;8.20;85.70
51383;DHT22;37475;43.358;1.248;2023-01-09T04:53:18;8.10;86.10
51383;DHT22;37475;43.358;1.248;2023-01-09T04:55:44;8.10;86.20
51383;DHT22;37475;43.358;1.248;2023-01-09T04:58:10;8.10;86.70
51383;DHT22;37475;43.358;1.248;2023-01-09T05:00:36;8.10;87.10
51383;DHT22;37475;43.358;1.248;2023-01-09T05:03:02;8.10;87.30
51383;DHT22;37475;43.358;1.248;2023-01-09T05:05:28;8.10;87.70
51383;DHT22;37475;43.358;1.248;2023-01-09T05:07:54;8.00;88.10
51383;DHT22;37475;43.358;1.248;2023-01-09T05:10:20;7.90;88.60
51383;DHT22;37475;43.358;1.248;2023-01-09T05:12:46;7.90;89.00
51383;DHT22;37475;43.358;1.248;2023-01-09T05:15:11;7.90;89.10
51383;DHT22;37475;43.358;1.248;2023-01-09T05:17:37;7.90;89.10
51383;DHT22;37475;43.358;1.248;2023-01-09T05:20:04;8.10;88.80
51383;DHT22;37475;43.358;1.248;2023-01-09T05:22:30;8.00;88.80
51383;DHT22;37475;43.358;1.248;2023-01-09T05:24:56;8.10;88.30
51383;DHT22;37475;43.358;1.248;2023-01-09T05:27:21;8.10;87.50
51383;DHT22;37475;43.358;1.248;2023-01-09T05:29:47;8.20;87.40
51383;DHT22;37475;43.358;1.248;2023-01-09T05:32:13;8.20;87.10
51383;DHT22;37475;43.358;1.248;2023-01-09T05:34:39;8.10;87.50
51383;DHT22;37475;43.358;1.248;2023-01-09T05:37:05;8.20;87.30
51383;DHT22;37475;43.358;1.248;2023-01-09T05:39:31;8.10;87.60
51383;DHT22;37475;43.358;1.248;2023-01-09T05:41:56;8.10;87.40
51383;DHT22;37475;43.358;1.248;2023-01-09T05:44:22;8.10;87.40
51383;DHT22;37475;43.358;1.248;2023-01-09T05:46:48;8.10;87.50
51383;DHT22;37475;43.358;1.248;2023-01-09T05:49:14;8.00;87.50
51383;DHT22;37475;43.358;1.248;2023-01-09T05:51:40;8.10;87.30
51383;DHT22;37475;43.358;1.248;2023-01-09T05:54:06;8.00;87.30
51383;DHT22;37475;43.358;1.248;2023-01-09T05:56:31;7.90;87.40
51383;DHT22;37475;43.358;1.248;2023-01-09T05:58:57;7.90;87.00
51383;DHT22;37475;43.358;1.248;2023-01-09T06:01:23;7.90;86.80
51383;DHT22;37475;43.358;1.248;2023-01-09T06:03:49;7.90;86.90
51383;DHT22;37475;43.358;1.248;2023-01-09T06:06:15;8.00;86.50
51383;DHT22;37475;43.358;1.248;2023-01-09T06:08:41;7.90;86.60
51383;DHT22;37475;43.358;1.248;2023-01-09T06:11:06;7.90;86.50
51383;DHT22;37475;43.358;1.248;2023-01-09T06:13:32;7.90;86.60
51383;DHT22;37475;43.358;1.248;2023-01-09T06:15:58;7.90;86.40
51383;DHT22;37475;43.358;1.248;2023-01-09T06:18:24;7.90;86.70
51383;DHT22;37475;43.358;1.248;2023-01-09T06:20:50;7.90;86.80
51383;DHT22;37475;43.358;1.248;2023-01-09T06:23:15;8.00;86.70
51383;DHT22;37475;43.358;1.248;2023-01-09T06:25:41;8.00;86.60
51383;DHT22;37475;43.358;1.248;2023-01-09T06:28:07;7.90;87.00
51383;DHT22;37475;43.358;1.248;2023-01-09T06:30:33;7.90;87.10
51383;DHT22;37475;43.358;1.248;2023-01-09T06:32:59;7.90;87.10
51383;DHT22;37475;43.358;1.248;2023-01-09T06:35:24;7.90;87.20
51383;DHT22;37475;43.358;1.248;2023-01-09T06:37:50;7.90;87.50
51383;DHT22;37475;43.358;1.248;2023-01-09T06:40:17;7.80;87.90
51383;DHT22;37475;43.358;1.248;2023-01-09T06:42:45;7.90;88.00
51383;DHT22;37475;43.358;1.248;2023-01-09T06:45:11;7.90;87.80
51383;DHT22;37475;43.358;1.248;2023-01-09T06:47:38;8.00;87.70
51383;DHT22;37475;43.358;1.248;2023-01-09T06:50:04;7.90;88.10
51383;DHT22;37475;43.358;1.248;2023-01-09T06:52:31;7.90;88.20
51383;DHT22;37475;43.358;1.248;2023-01-09T06:54:56;8.10;86.70
51383;DHT22;37475;43.358;1.248;2023-01-09T06:57:22;8.20;86.70
51383;DHT22;37475;43.358;1.248;2023-01-09T06:59:48;8.20;86.40
51383;DHT22;37475;43.358;1.248;2023-01-09T07:02:18;8.10;85.60
51383;DHT22;37475;43.358;1.248;2023-01-09T07:04:45;8.10;85.30
51383;DHT22;37475;43.358;1.248;2023-01-09T07:07:12;7.90;86.00
51383;DHT22;37475;43.358;1.248;2023-01-09T07:09:38;7.80;86.90
51383;DHT22;37475;43.358;1.248;2023-01-09T07:12:03;7.70;87.70
51383;DHT22;37475;43.358;1.248;2023-01-09T07:14:29;7.60;88.00
51383;DHT22;37475;43.358;1.248;2023-01-09T07:16:56;7.60;88.40
51383;DHT22;37475;43.358;1.248;2023-01-09T07:19:22;7.50;88.90
51383;DHT22;37475;43.358;1.248;2023-01-09T07:21:48;7.50;88.40
51383;DHT22;37475;43.358;1.248;2023-01-09T07:24:14;7.60;88.50
51383;DHT22;37475;43.358;1.248;2023-01-09T07:26:40;7.60;88.60
51383;DHT22;37475;43.358;1.248;2023-01-09T07:29:06;7.60;89.40
51383;DHT22;37475;43.358;1.248;2023-01-09T07:31:32;7.80;89.00
51383;DHT22;37475;43.358;1.248;2023-01-09T07:33:57;8.10;86.70
51383;DHT22;37475;43.358;1.248;2023-01-09T07:36:23;8.00;87.40
51383;DHT22;37475;43.358;1.248;2023-01-09T07:38:49;8.00;87.30
51383;DHT22;37475;43.358;1.248;2023-01-09T07:41:15;8.00;87.00
51383;DHT22;37475;43.358;1.248;2023-01-09T07:43:40;7.90;87.30
51383;DHT22;37475;43.358;1.248;2023-01-09T07:46:06;7.90;87.50
51383;DHT22;37475;43.358;1.248;2023-01-09T07:48:32;7.90;87.70
51383;DHT22;37475;43.358;1.248;2023-01-09T07:50:58;7.90;87.10
51383;DHT22;37475;43.358;1.248;2023-01-09T07:53:24;7.90;86.50
51383;DHT22;37475;43.358;1.248;2023-01-09T07:55:49;7.90;86.60
51383;DHT22;37475;43.358;1.248;2023-01-09T07:58:15;7.90;86.50
51383;DHT22;37475;43.358;1.248;2023-01-09T08:00:41;7.90;86.70
51383;DHT22;37475;43.358;1.248;2023-01-09T08:03:07;7.90;86.30
51383;DHT22;37475;43.358;1.248;2023-01-09T08:05:33;7.90;85.90
51383;DHT22;37475;43.358;1.248;2023-01-09T08:07:59;7.80;86.30
51383;DHT22;37475;43.358;1.248;2023-01-09T08:10:26;7.80;86.10
51383;DHT22;37475;43.358;1.248;2023-01-09T08:12:52;7.70;86.10
51383;DHT22;37475;43.358;1.248;2023-01-09T08:15:18;7.80;85.70
51383;DHT22;37475;43.358;1.248;2023-01-09T08:17:44;7.80;85.60
51383;DHT22;37475;43.358;1.248;2023-01-09T08:20:12;7.80;85.50
51383;DHT22;37475;43.358;1.248;2023-01-09T08:22:44;7.80;85.20
51383;DHT22;37475;43.358;1.248;2023-01-09T08:25:15;7.80;85.20
51383;DHT22;37475;43.358;1.248;2023-01-09T08:27:42;7.80;85.10
51383;DHT22;37475;43.358;1.248;2023-01-09T08:30:08;7.80;85.60
51383;DHT22;37475;43.358;1.248;2023-01-09T08:32:35;7.90;85.40
51383;DHT22;37475;43.358;1.248;2023-01-09T08:35:02;7.90;85.20
51383;DHT22;37475;43.358;1.248;2023-01-09T08:37:29;8.00;84.70
51383;DHT22;37475;43.358;1.248;2023-01-09T08:39:54;8.10;85.10
51383;DHT22;37475;43.358;1.248;2023-01-09T08:42:20;8.10;85.00
51383;DHT22;37475;43.358;1.248;2023-01-09T08:45:07;8.10;85.10
51383;DHT22;37475;43.358;1.248;2023-01-09T08:47:53;8.00;85.70
51383;DHT22;37475;43.358;1.248;2023-01-09T08:50:19;8.00;86.50
51383;DHT22;37475;43.358;1.248;2023-01-09T08:52:45;8.10;85.90
51383;DHT22;37475;43.358;1.248;2023-01-09T08:55:11;8.10;85.90
51383;DHT22;37475;43.358;1.248;2023-01-09T08:57:37;8.20;85.20
51383;DHT22;37475;43.358;1.248;2023-01-09T09:00:12;8.10;84.90
51383;DHT22;37475;43.358;1.248;2023-01-09T09:02:38;8.20;83.90
51383;DHT22;37475;43.358;1.248;2023-01-09T09:05:04;8.20;83.60
51383;DHT22;37475;43.358;1.248;2023-01-09T09:07:30;8.20;83.30
51383;DHT22;37475;43.358;1.248;2023-01-09T09:09:56;8.20;83.00
51383;DHT22;37475;43.358;1.248;2023-01-09T09:12:22;8.20;83.60
51383;DHT22;37475;43.358;1.248;2023-01-09T09:14:48;8.20;84.00
51383;DHT22;37475;43.358;1.248;2023-01-09T09:17:32;8.20;83.80
51383;DHT22;37475;43.358;1.248;2023-01-09T09:19:59;8.10;85.00
51383;DHT22;37475;43.358;1.248;2023-01-09T09:22:25;8.20;84.40
51383;DHT22;37475;43.358;1.248;2023-01-09T09:24:51;8.20;84.50
51383;DHT22;37475;43.358;1.248;2023-01-09T09:27:17;8.20;85.00
51383;DHT22;37475;43.358;1.248;2023-01-09T09:29:43;8.10;85.70
51383;DHT22;37475;43.358;1.248;2023-01-09T09:32:09;8.10;85.50
51383;DHT22;37475;43.358;1.248;2023-01-09T09:34:35;8.10;84.40
51383;DHT22;37475;43.358;1.248;2023-01-09T09:37:01;8.10;84.80
51383;DHT22;37475;43.358;1.248;2023-01-09T09:39:26;8.00;83.90
51383;DHT22;37475;43.358;1.248;2023-01-09T09:53:50;8.00;84.40
51383;DHT22;37475;43.358;1.248;2023-01-09T09:56:21;8.10;83.90
51383;DHT22;37475;43.358;1.248;2023-01-09T09:58:59;8.30;82.90
51383;DHT22;37475;43.358;1.248;2023-01-09T10:01:50;8.40;82.70
51383;DHT22;37475;43.358;1.248;2023-01-09T10:04:20;8.60;82.70
51383;DHT22;37475;43.358;1.248;2023-01-09T10:06:52;8.70;82.40
51383;DHT22;37475;43.358;1.248;2023-01-09T10:09:37;8.70;81.80
51383;DHT22;37475;43.358;1.248;2023-01-09T10:15:40;9.00;81.70
51383;DHT22;37475;43.358;1.248;2023-01-09T10:21:20;8.90;81.80
51383;DHT22;37475;43.358;1.248;2023-01-09T10:26:45;8.90;81.00
51383;DHT22;37475;43.358;1.248;2023-01-09T10:38:24;9.40;79.40
51383;DHT22;37475;43.358;1.248;2023-01-09T10:41:12;9.20;80.80
51383;DHT22;37475;43.358;1.248;2023-01-09T10:46:54;9.20;80.70
51383;DHT22;37475;43.358;1.248;2023-01-09T10:49:22;9.10;81.10
51383;DHT22;37475;43.358;1.248;2023-01-09T10:51:51;9.10;80.80
51383;DHT22;37475;43.358;1.248;2023-01-09T10:54:22;9.10;80.30
51383;DHT22;37475;43.358;1.248;2023-01-09T10:57:09;9.10;81.50
51383;DHT22;37475;43.358;1.248;2023-01-09T10:59:39;9.10;80.30
51383;DHT22;37475;43.358;1.248;2023-01-09T11:02:35;9.10;81.50
51383;DHT22;37475;43.358;1.248;2023-01-09T11:05:01;8.90;83.50
51383;DHT22;37475;43.358;1.248;2023-01-09T11:07:38;8.60;84.70
51383;DHT22;37475;43.358;1.248;2023-01-09T11:10:09;8.20;86.90
51383;DHT22;37475;43.358;1.248;2023-01-09T11:12:37;7.90;86.50
51383;DHT22;37475;43.358;1.248;2023-01-09T11:17:44;7.70;88.30
51383;DHT22;37475;43.358;1.248;2023-01-09T11:22:44;7.80;86.40
51383;DHT22;37475;43.358;1.248;2023-01-09T11:25:17;8.30;86.00
51383;DHT22;37475;43.358;1.248;2023-01-09T11:28:04;8.60;84.70
51383;DHT22;37475;43.358;1.248;2023-01-09T11:33:30;9.10;83.80
51383;DHT22;37475;43.358;1.248;2023-01-09T11:36:09;9.20;82.50
51383;DHT22;37475;43.358;1.248;2023-01-09T11:38:56;9.20;82.20
51383;DHT22;37475;43.358;1.248;2023-01-09T11:41:32;9.00;83.90
51383;DHT22;37475;43.358;1.248;2023-01-09T11:43:59;8.90;84.70
51383;DHT22;37475;43.358;1.248;2023-01-09T11:46:39;8.80;84.40
51383;DHT22;37475;43.358;1.248;2023-01-09T11:49:19;8.80;85.10
51383;DHT22;37475;43.358;1.248;2023-01-09T11:55:14;8.80;84.80
51383;DHT22;37475;43.358;1.248;2023-01-09T11:57:42;8.80;86.20
51383;DHT22;37475;43.358;1.248;2023-01-09T12:00:26;8.70;86.00
51383;DHT22;37475;43.358;1.248;2023-01-09T12:03:12;8.70;86.70
51383;DHT22;37475;43.358;1.248;2023-01-09T12:08:32;8.60;85.90
51383;DHT22;37475;43.358;1.248;2023-01-09T12:11:33;8.50;87.10
51383;DHT22;37475;43.358;1.248;2023-01-09T12:37:53;8.10;88.30
51383;DHT22;37475;43.358;1.248;2023-01-09T12:40:58;8.10;89.80
51383;DHT22;37475;43.358;1.248;2023-01-09T12:43:48;8.00;90.60
51383;DHT22;37475;43.358;1.248;2023-01-09T12:46:21;7.90;90.90
51383;DHT22;37475;43.358;1.248;2023-01-09T12:49:29;7.90;90.80
51383;DHT22;37475;43.358;1.248;2023-01-09T12:52:13;8.00;90.60
51383;DHT22;37475;43.358;1.248;2023-01-09T12:55:25;7.90;90.80
51383;DHT22;37475;43.358;1.248;2023-01-09T12:57:56;7.70;90.80
51383;DHT22;37475;43.358;1.248;2023-01-09T13:00:27;7.80;90.60
51383;DHT22;37475;43.358;1.248;2023-01-09T13:03:00;7.90;88.70
51383;DHT22;37475;43.358;1.248;2023-01-09T13:05:48;8.00;90.10
51383;DHT22;37475;43.358;1.248;2023-01-09T13:11:16;8.10;90.40
51383;DHT22;37475;43.358;1.248;2023-01-09T13:16:31;8.10;91.00
51383;DHT22;37475;43.358;1.248;2023-01-09T13:19:06;8.20;91.00
51383;DHT22;37475;43.358;1.248;2023-01-09T13:21:41;8.30;91.10
51383;DHT22;37475;43.358;1.248;2023-01-09T13:24:29;8.40;91.50
51383;DHT22;37475;43.358;1.248;2023-01-09T13:27:17;8.40;91.30
51383;DHT22;37475;43.358;1.248;2023-01-09T13:30:07;8.50;91.20
51383;DHT22;37475;43.358;1.248;2023-01-09T13:32:58;8.50;90.50
51383;DHT22;37475;43.358;1.248;2023-01-09T13:35:27;8.60;89.40
51383;DHT22;37475;43.358;1.248;2023-01-09T13:37:53;8.60;90.30
51383;DHT22;37475;43.358;1.248;2023-01-09T13:43:05;8.60;88.80
51383;DHT22;37475;43.358;1.248;2023-01-09T13:45:35;8.70;89.60
51383;DHT22;37475;43.358;1.248;2023-01-09T13:50:34;8.60;88.70
51383;DHT22;37475;43.358;1.248;2023-01-09T14:06:35;8.80;86.90
51383;DHT22;37475;43.358;1.248;2023-01-09T14:09:18;8.80;86.50
51383;DHT22;37475;43.358;1.248;2023-01-09T14:11:46;8.90;87.30
51383;DHT22;37475;43.358;1.248;2023-01-09T14:14:22;8.80;86.90
51383;DHT22;37475;43.358;1.248;2023-01-09T14:16:54;8.70;86.60
51383;DHT22;37475;43.358;1.248;2023-01-09T14:19:27;8.60;87.10
51383;DHT22;37475;43.358;1.248;2023-01-09T14:22:03;8.40;89.20
51383;DHT22;37475;43.358;1.248;2023-01-09T14:24:38;8.10;89.90
51383;DHT22;37475;43.358;1.248;2023-01-09T14:32:56;7.90;91.00
51383;DHT22;37475;43.358;1.248;2023-01-09T14:35:53;7.90;91.60
51383;DHT22;37475;43.358;1.248;2023-01-09T14:38:33;7.40;90.10
51383;DHT22;37475;43.358;1.248;2023-01-09T14:45:05;6.70;89.00
51383;DHT22;37475;43.358;1.248;2023-01-09T14:47:44;6.40;90.10
51383;DHT22;37475;43.358;1.248;2023-01-09T14:50:32;6.60;88.80
51383;DHT22;37475;43.358;1.248;2023-01-09T14:55:53;6.60;90.90
51383;DHT22;37475;43.358;1.248;2023-01-09T14:58:31;6.60;91.90
51383;DHT22;37475;43.358;1.248;2023-01-09T15:03:51;6.60;92.50
51383;DHT22;37475;43.358;1.248;2023-01-09T15:06:21;6.70;92.70
51383;DHT22;37475;43.358;1.248;2023-01-09T15:08:57;7.00;93.30
51383;DHT22;37475;43.358;1.248;2023-01-09T15:11:27;7.70;90.00
51383;DHT22;37475;43.358;1.248;2023-01-09T15:13:55;8.00;89.00
51383;DHT22;37475;43.358;1.248;2023-01-09T15:16:25;8.10;89.10
51383;DHT22;37475;43.358;1.248;2023-01-09T15:18:55;8.20;89.50
51383;DHT22;37475;43.358;1.248;2023-01-09T15:21:25;8.10;90.90
51383;DHT22;37475;43.358;1.248;2023-01-09T15:24:10;8.30;91.00
51383;DHT22;37475;43.358;1.248;2023-01-09T15:26:53;8.30;90.80
51383;DHT22;37475;43.358;1.248;2023-01-09T15:29:24;8.30;90.00
51383;DHT22;37475;43.358;1.248;2023-01-09T15:32:00;8.20;89.80
51383;DHT22;37475;43.358;1.248;2023-01-09T15:34:30;8.20;86.30
51383;DHT22;37475;43.358;1.248;2023-01-09T15:36:57;8.50;85.80
51383;DHT22;37475;43.358;1.248;2023-01-09T15:39:25;8.70;86.40
51383;DHT22;37475;43.358;1.248;2023-01-09T15:41:54;8.70;87.90
51383;DHT22;37475;43.358;1.248;2023-01-09T15:44:41;8.90;88.30
51383;DHT22;37475;43.358;1.248;2023-01-09T15:47:14;9.00;88.40
51383;DHT22;37475;43.358;1.248;2023-01-09T15:49:43;8.90;88.20
51383;DHT22;37475;43.358;1.248;2023-01-09T15:52:14;8.80;88.90
51383;DHT22;37475;43.358;1.248;2023-01-09T15:54:43;8.70;90.00
51383;DHT22;37475;43.358;1.248;2023-01-09T16:03:01;8.50;90.60
51383;DHT22;37475;43.358;1.248;2023-01-09T16:05:42;8.50;90.20
51383;DHT22;37475;43.358;1.248;2023-01-09T16:08:27;8.40;89.40
51383;DHT22;37475;43.358;1.248;2023-01-09T16:11:07;8.40;89.20
51383;DHT22;37475;43.358;1.248;2023-01-09T16:13:40;8.40;88.60
51383;DHT22;37475;43.358;1.248;2023-01-09T16:16:08;8.40;88.30
51383;DHT22;37475;43.358;1.248;2023-01-09T16:18:39;8.30;87.50
51383;DHT22;37475;43.358;1.248;2023-01-09T16:21:34;8.30;86.00
51383;DHT22;37475;43.358;1.248;2023-01-09T16:26:41;8.10;86.20
51383;DHT22;37475;43.358;1.248;2023-01-09T16:32:03;8.10;85.80
51383;DHT22;37475;43.358;1.248;2023-01-09T16:34:33;8.20;85.40
51383;DHT22;37475;43.358;1.248;2023-01-09T16:36:59;8.10;86.00
51383;DHT22;37475;43.358;1.248;2023-01-09T16:39:27;8.00;86.30
51383;DHT22;37475;43.358;1.248;2023-01-09T16:41:56;8.10;86.10
51383;DHT22;37475;43.358;1.248;2023-01-09T16:44:41;7.90;87.00
51383;DHT22;37475;43.358;1.248;2023-01-09T16:47:10;8.00;86.40
51383;DHT22;37475;43.358;1.248;2023-01-09T16:49:36;8.10;86.40
51383;DHT22;37475;43.358;1.248;2023-01-09T16:52:12;8.10;86.20
51383;DHT22;37475;43.358;1.248;2023-01-09T16:54:40;8.10;86.70
51383;DHT22;37475;43.358;1.248;2023-01-09T16:57:15;8.10;86.30
51383;DHT22;37475;43.358;1.248;2023-01-09T16:59:43;8.10;85.80
51383;DHT22;37475;43.358;1.248;2023-01-09T17:02:17;8.20;85.90
51383;DHT22;37475;43.358;1.248;2023-01-09T17:04:44;8.10;86.10
51383;DHT22;37475;43.358;1.248;2023-01-09T17:07:15;8.10;86.00
51383;DHT22;37475;43.358;1.248;2023-01-09T17:09:42;8.20;85.10
51383;DHT22;37475;43.358;1.248;2023-01-09T17:12:20;8.20;84.70
51383;DHT22;37475;43.358;1.248;2023-01-09T17:14:49;8.20;84.60
51383;DHT22;37475;43.358;1.248;2023-01-09T17:17:15;8.30;83.50
51383;DHT22;37475;43.358;1.248;2023-01-09T17:19:42;8.10;84.40
51383;DHT22;37475;43.358;1.248;2023-01-09T17:22:10;8.20;83.90
51383;DHT22;37475;43.358;1.248;2023-01-09T17:24:35;8.10;84.80
51383;DHT22;37475;43.358;1.248;2023-01-09T17:27:27;8.10;84.80
51383;DHT22;37475;43.358;1.248;2023-01-09T17:30:14;8.00;85.00
51383;DHT22;37475;43.358;1.248;2023-01-09T17:32:40;8.10;85.10
51383;DHT22;37475;43.358;1.248;2023-01-09T17:35:06;8.00;85.60
51383;DHT22;37475;43.358;1.248;2023-01-09T17:37:32;7.90;86.10
51383;DHT22;37475;43.358;1.248;2023-01-09T17:39:58;7.90;86.50
51383;DHT22;37475;43.358;1.248;2023-01-09T17:42:31;7.90;86.90
51383;DHT22;37475;43.358;1.248;2023-01-09T17:44:57;7.90;87.10
51383;DHT22;37475;43.358;1.248;2023-01-09T17:47:24;8.00;87.00
51383;DHT22;37475;43.358;1.248;2023-01-09T17:49:49;8.00;87.50
51383;DHT22;37475;43.358;1.248;2023-01-09T17:52:15;7.90;87.70
51383;DHT22;37475;43.358;1.248;2023-01-09T17:54:41;7.90;88.20
51383;DHT22;37475;43.358;1.248;2023-01-09T17:57:12;8.10;88.00
51383;DHT22;37475;43.358;1.248;2023-01-09T17:59:40;8.10;87.80
51383;DHT22;37475;43.358;1.248;2023-01-09T18:02:15;8.20;88.00
51383;DHT22;37475;43.358;1.248;2023-01-09T18:04:42;8.10;88.20
51383;DHT22;37475;43.358;1.248;2023-01-09T18:07:15;8.20;88.10
51383;DHT22;37475;43.358;1.248;2023-01-09T18:09:43;8.30;88.10
51383;DHT22;37475;43.358;1.248;2023-01-09T18:12:09;8.40;87.90
51383;DHT22;37475;43.358;1.248;2023-01-09T18:14:36;8.40;87.80
51383;DHT22;37475;43.358;1.248;2023-01-09T18:17:05;8.40;87.70
51383;DHT22;37475;43.358;1.248;2023-01-09T18:19:32;8.40;87.30
51383;DHT22;37475;43.358;1.248;2023-01-09T18:21:58;8.50;87.00
51383;DHT22;37475;43.358;1.248;2023-01-09T18:24:24;8.60;86.70
51383;DHT22;37475;43.358;1.248;2023-01-09T18:26:50;8.50;87.10
51383;DHT22;37475;43.358;1.248;2023-01-09T18:29:16;8.60;86.50
51383;DHT22;37475;43.358;1.248;2023-01-09T18:31:44;8.60;86.20
51383;DHT22;37475;43.358;1.248;2023-01-09T18:34:09;8.40;87.10
51383;DHT22;37475;43.358;1.248;2023-01-09T18:36:35;8.40;86.90